Time;durP1;ratioP1;P1;durP2;ratioP2;P2;SDS_P1;SDS_P2;PMS_P1;PMS_P2;Temp;Humidity;BMP_temperature;BMP_pressure;BME280_temperature;BME280_humidity;BME280_pressure;Samples;Min_cycle;Max_cycle;Signal;HPM_P1;HPM_P2
2021/04/16 00:02:04;;;;;;;3.78;3.22;;;3.00;99.90;;;;;;5008883;28;20015;-70
2021/04/16 00:04:30;;;;;;;5.22;3.50;;;3.00;99.90;;;;;;5014348;28;20475;-71
2021/04/16 00:06:56;;;;;;;4.28;3.40;;;3.00;99.90;;;;;;5001251;28;20037;-69
2021/04/16 00:09:25;;;;;;;4.53;3.28;;;3.00;99.90;;;;;;5012661;28;20026;-70
2021/04/16 00:11:52;;;;;;;4.78;3.78;;;3.00;99.90;;;;;;5005453;28;20121;-70
2021/04/16 00:14:18;;;;;;;3.80;3.35;;;3.00;99.90;;;;;;5014321;28;20090;-71
2021/04/16 00:16:44;;;;;;;3.92;3.40;;;3.00;99.90;;;;;;5006662;28;20037;-70
2021/04/16 00:19:10;;;;;;;5.80;3.60;;;2.90;99.90;;;;;;5009634;28;20386;-70
2021/04/16 00:21:36;;;;;;;4.47;3.42;;;2.90;1.00;;;;;;5017817;28;20080;-71
2021/04/16 00:24:02;;;;;;;4.38;3.58;;;2.90;1.00;;;;;;5012311;28;20019;-70
2021/04/16 00:26:28;;;;;;;7.85;3.38;;;2.80;1.00;;;;;;5003919;28;20030;-71
2021/04/16 00:28:53;;;;;;;4.90;4.13;;;2.80;1.00;;;;;;5017084;28;20051;-71
2021/04/16 00:31:29;;;;;;;7.47;3.67;;;2.80;1.00;;;;;;5020010;28;20035;-70
2021/04/16 00:33:55;;;;;;;4.05;3.60;;;2.80;1.00;;;;;;5019756;28;20033;-70
2021/04/16 00:36:21;;;;;;;4.55;3.92;;;2.80;1.00;;;;;;5016794;28;20026;-70
2021/04/16 00:38:48;;;;;;;5.95;4.20;;;2.70;1.00;;;;;;5018525;28;20025;-71
2021/04/16 00:41:18;;;;;;;4.63;3.75;;;2.70;12.30;;;;;;5018020;28;20058;-71
2021/04/16 00:43:44;;;;;;;5.20;3.97;;;2.60;25.60;;;;;;5012968;28;20018;-71
2021/04/16 00:46:12;;;;;;;6.40;4.65;;;2.60;28.10;;;;;;5019927;28;20026;-71
2021/04/16 00:48:44;;;;;;;5.07;4.30;;;2.60;41.70;;;;;;5024106;28;20030;-70
2021/04/16 00:51:18;;;;;;;6.68;4.18;;;2.60;27.80;;;;;;5021700;28;20454;-71
2021/04/16 00:53:44;;;;;;;5.70;3.72;;;2.50;26.40;;;;;;5021033;28;20477;-70
2021/04/16 00:56:10;;;;;;;4.57;3.92;;;2.50;30.00;;;;;;5023458;28;20084;-71
2021/04/16 00:58:36;;;;;;;4.70;3.80;;;2.50;36.60;;;;;;5022772;28;20064;-70
2021/04/16 01:01:03;;;;;;;4.97;3.65;;;2.50;39.30;;;;;;5013770;28;20034;-70
2021/04/16 01:03:29;;;;;;;4.88;3.28;;;2.40;60.40;;;;;;5020282;28;20018;-71
2021/04/16 01:06:03;;;;;;;6.38;3.85;;;2.40;43.30;;;;;;5029380;28;20034;-70
2021/04/16 01:08:28;;;;;;;5.70;4.13;;;2.40;52.80;;;;;;5018015;28;20112;-70
2021/04/16 01:10:54;;;;;;;5.82;4.82;;;2.40;55.90;;;;;;5009519;28;20091;-70
2021/04/16 01:13:23;;;;;;;5.05;3.30;;;2.40;57.10;;;;;;5009094;28;20033;-71
2021/04/16 01:16:02;;;;;;;4.57;4.07;;;2.30;69.90;;;;;;5012444;28;20515;-70
2021/04/16 01:18:37;;;;;;;4.72;3.95;;;2.30;87.30;;;;;;5013261;28;20092;-72
2021/04/16 01:21:06;;;;;;;4.07;3.55;;;2.20;99.90;;;;;;5006341;28;20358;-71
2021/04/16 01:23:42;;;;;;;4.53;4.13;;;2.20;99.90;;;;;;5005488;28;20362;-70
2021/04/16 01:26:10;;;;;;;5.25;3.80;;;2.00;99.90;;;;;;5006319;28;20071;-70
2021/04/16 01:28:36;;;;;;;9.48;4.60;;;2.00;99.90;;;;;;5005122;28;20057;-69
2021/04/16 01:31:08;;;;;;;6.13;4.30;;;2.00;99.90;;;;;;5005594;28;20027;-69
2021/04/16 01:33:36;;;;;;;4.70;3.97;;;2.00;99.90;;;;;;5002122;28;20165;-70
2021/04/16 01:36:04;;;;;;;3.92;3.55;;;2.10;99.90;;;;;;4999942;28;20026;-70
2021/04/16 01:38:30;;;;;;;4.53;3.65;;;2.00;99.90;;;;;;5009351;28;20053;-71
2021/04/16 01:40:55;;;;;;;5.40;4.65;;;2.00;99.90;;;;;;5010384;28;20484;-70
2021/04/16 01:43:26;;;;;;;5.80;4.38;;;1.90;99.90;;;;;;4995264;28;20027;-71
2021/04/16 01:46:19;;;;;;;6.63;4.10;;;1.90;99.90;;;;;;5008424;28;20456;-70
2021/04/16 01:48:50;;;;;;;7.03;3.90;;;1.90;99.90;;;;;;5002468;28;20084;-70
2021/04/16 01:51:30;;;;;;;5.07;4.00;;;2.00;99.90;;;;;;5034919;28;20114;-70
2021/04/16 01:54:13;;;;;;;4.55;3.53;;;2.00;99.90;;;;;;5013820;28;20037;-71
2021/04/16 01:56:44;;;;;;;7.28;3.72;;;2.00;99.90;;;;;;5010672;28;20137;-70
2021/04/16 01:59:12;;;;;;;4.70;3.80;;;2.00;99.90;;;;;;5006499;28;20022;-70
2021/04/16 02:01:38;;;;;;;7.30;3.83;;;2.00;99.90;;;;;;5004212;28;20037;-70
2021/04/16 02:04:04;;;;;;;5.25;3.92;;;1.90;99.90;;;;;;5002830;28;20432;-70
2021/04/16 02:06:37;;;;;;;5.45;3.50;;;1.80;99.90;;;;;;5006246;28;20018;-70
2021/04/16 02:09:15;;;;;;;4.00;3.60;;;1.80;99.90;;;;;;5010816;28;20396;-70
2021/04/16 02:11:43;;;;;;;6.38;4.38;;;1.80;99.90;;;;;;5009481;28;20114;-70
2021/04/16 02:14:16;;;;;;;5.95;3.70;;;1.80;99.90;;;;;;5004064;28;20034;-70
2021/04/16 02:16:43;;;;;;;7.75;4.03;;;1.90;99.90;;;;;;5010481;28;20022;-70
2021/04/16 02:19:09;;;;;;;4.43;3.65;;;1.90;99.90;;;;;;5007610;28;20542;-70
2021/04/16 02:21:35;;;;;;;4.13;3.65;;;1.90;99.90;;;;;;5007285;28;20061;-70
2021/04/16 02:24:02;;;;;;;7.25;4.18;;;1.90;99.90;;;;;;5008027;28;20046;-70
2021/04/16 02:26:27;;;;;;;5.50;4.22;;;1.90;99.90;;;;;;5007838;28;20030;-70
2021/04/16 02:28:53;;;;;;;4.35;3.70;;;1.80;99.90;;;;;;5011582;28;20076;-70
2021/04/16 02:31:18;;;;;;;5.20;4.25;;;1.80;99.90;;;;;;5037636;23;20046;-70
2021/04/16 02:33:44;;;;;;;3.80;3.40;;;1.80;99.90;;;;;;5023375;28;20465;-71
2021/04/16 02:36:10;;;;;;;3.92;3.53;;;1.70;99.90;;;;;;5032456;28;20026;-71
2021/04/16 02:38:37;;;;;;;4.43;3.88;;;1.70;99.90;;;;;;5034557;28;20034;-71
2021/04/16 02:41:03;;;;;;;6.07;4.15;;;1.70;99.90;;;;;;5031631;28;20029;-72
2021/04/16 02:43:29;;;;;;;4.03;3.58;;;1.60;99.90;;;;;;5009200;28;20021;-72
2021/04/16 02:45:55;;;;;;;5.25;4.10;;;1.50;99.90;;;;;;5014000;28;20021;-71
2021/04/16 02:48:20;;;;;;;5.75;4.07;;;1.50;99.90;;;;;;5018864;28;20101;-72
2021/04/16 02:50:46;;;;;;;6.32;5.30;;;1.60;99.90;;;;;;5019123;28;20110;-72
2021/04/16 02:53:12;;;;;;;4.50;3.55;;;1.60;99.90;;;;;;5022880;28;20025;-72
2021/04/16 02:55:38;;;;;;;6.22;4.18;;;1.50;99.90;;;;;;5018958;28;20029;-71
2021/04/16 02:58:04;;;;;;;6.90;4.32;;;1.50;99.90;;;;;;5022785;28;20030;-71
2021/04/16 03:00:31;;;;;;;5.03;3.85;;;1.50;99.90;;;;;;5019041;28;20026;-72
2021/04/16 03:02:57;;;;;;;4.72;3.78;;;1.50;99.90;;;;;;5021825;28;20128;-71
2021/04/16 03:05:22;;;;;;;5.65;4.10;;;1.50;99.90;;;;;;5021548;28;20518;-71
2021/04/16 03:07:48;;;;;;;5.45;4.95;;;1.50;99.90;;;;;;5020036;28;20487;-72
2021/04/16 03:10:16;;;;;;;9.35;4.25;;;1.50;99.90;;;;;;5018541;28;20113;-72
2021/04/16 03:12:42;;;;;;;6.10;4.22;;;1.50;99.90;;;;;;5023084;28;20021;-72
2021/04/16 03:15:09;;;;;;;7.20;4.57;;;1.50;99.90;;;;;;5030229;28;20029;-72
2021/04/16 03:17:34;;;;;;;6.43;4.60;;;1.50;99.90;;;;;;4998983;28;20109;-72
2021/04/16 03:20:00;;;;;;;5.15;4.53;;;1.50;99.90;;;;;;5012929;28;20451;-71
2021/04/16 03:22:26;;;;;;;5.78;4.00;;;1.50;99.90;;;;;;5011768;28;20030;-71
2021/04/16 03:24:52;;;;;;;7.85;4.45;;;1.40;99.90;;;;;;5020295;28;20033;-72
2021/04/16 03:27:18;;;;;;;6.82;4.60;;;1.50;99.90;;;;;;5016592;28;20062;-72
2021/04/16 03:29:44;;;;;;;6.55;4.20;;;1.60;99.90;;;;;;5010528;28;20064;-72
2021/04/16 03:32:09;;;;;;;5.88;3.92;;;1.80;99.90;;;;;;5019550;28;20022;-72
2021/04/16 03:34:35;;;;;;;4.90;4.40;;;1.60;99.90;;;;;;5018610;28;20017;-72
2021/04/16 03:37:00;;;;;;;5.40;4.43;;;1.60;99.90;;;;;;5007534;28;20385;-71
2021/04/16 03:39:26;;;;;;;5.30;4.18;;;1.50;99.90;;;;;;5009030;28;20452;-72
2021/04/16 03:41:52;;;;;;;6.80;4.63;;;1.50;99.90;;;;;;5019322;28;20013;-72
2021/04/16 03:44:17;;;;;;;11.25;4.72;;;1.40;99.90;;;;;;5023489;28;20112;-72
2021/04/16 03:46:43;;;;;;;6.80;4.57;;;1.50;99.90;;;;;;5021026;28;20052;-71
2021/04/16 03:49:09;;;;;;;18.83;5.07;;;1.70;99.90;;;;;;5011805;28;20053;-71
2021/04/16 03:51:48;;;;;;;5.93;5.03;;;1.70;99.90;;;;;;5022481;28;20026;-71
2021/04/16 03:54:14;;;;;;;9.15;5.35;;;1.50;99.90;;;;;;5029272;28;20119;-71
2021/04/16 03:56:39;;;;;;;8.10;5.15;;;1.40;99.90;;;;;;5034211;28;20033;-72
2021/04/16 03:59:05;;;;;;;5.85;4.82;;;1.30;99.90;;;;;;5030159;28;20033;-71
2021/04/16 04:01:31;;;;;;;8.00;5.45;;;1.30;99.90;;;;;;5024194;28;20033;-73
2021/04/16 04:03:56;;;;;;;5.10;4.60;;;1.20;99.90;;;;;;5011903;28;20080;-71
2021/04/16 04:06:22;;;;;;;6.10;5.57;;;1.20;99.90;;;;;;5018117;28;20477;-72
2021/04/16 04:08:48;;;;;;;7.50;5.10;;;1.20;99.90;;;;;;5017712;28;20041;-71
2021/04/16 04:11:13;;;;;;;9.05;5.70;;;1.20;99.90;;;;;;5017280;28;20026;-72
2021/04/16 04:13:39;;;;;;;8.45;5.70;;;1.10;99.90;;;;;;5026583;28;20058;-71
2021/04/16 04:16:05;;;;;;;7.10;4.78;;;1.10;99.90;;;;;;5029135;28;20036;-71
2021/04/16 04:18:30;;;;;;;9.80;4.78;;;1.10;99.90;;;;;;5001555;28;20025;-72
2021/04/16 04:20:56;;;;;;;9.93;5.55;;;1.10;99.90;;;;;;5010990;28;20032;-70
2021/04/16 04:23:22;;;;;;;10.35;7.00;;;1.10;99.90;;;;;;5023676;28;20029;-71
2021/04/16 04:25:48;;;;;;;8.13;5.30;;;1.10;99.90;;;;;;5021161;28;20025;-71
2021/04/16 04:28:13;;;;;;;9.60;6.13;;;1.20;99.90;;;;;;5025040;28;20022;-71
2021/04/16 04:30:39;;;;;;;5.60;4.80;;;1.10;99.90;;;;;;5022945;28;20025;-72
2021/04/16 04:33:06;;;;;;;5.20;4.70;;;1.30;99.90;;;;;;5019451;28;20030;-71
2021/04/16 04:35:33;;;;;;;14.23;6.82;;;1.50;99.90;;;;;;5009845;28;20026;-71
2021/04/16 04:37:59;;;;;;;6.47;5.00;;;1.70;99.90;;;;;;5014726;28;20470;-72
2021/04/16 04:40:26;;;;;;;8.82;5.20;;;1.70;99.90;;;;;;5025395;28;20037;-71
2021/04/16 04:42:52;;;;;;;5.85;4.80;;;1.80;99.90;;;;;;5027981;28;20128;-72
2021/04/16 04:45:19;;;;;;;6.75;5.75;;;1.60;99.90;;;;;;5028225;28;20030;-71
2021/04/16 04:47:45;;;;;;;7.78;5.65;;;1.60;99.90;;;;;;5023723;28;20029;-70
2021/04/16 04:50:11;;;;;;;8.05;5.63;;;1.70;99.90;;;;;;5004326;28;20436;-72
2021/04/16 04:52:39;;;;;;;9.50;7.43;;;1.50;99.90;;;;;;5025076;28;20022;-72
2021/04/16 04:55:14;;;;;;;7.75;5.47;;;1.50;99.90;;;;;;5023402;28;20109;-72
2021/04/16 04:57:39;;;;;;;10.95;5.97;;;1.50;99.90;;;;;;5019880;28;20025;-71
2021/04/16 05:00:07;;;;;;;8.13;5.85;;;1.60;99.90;;;;;;5021538;28;20029;-72
2021/04/16 05:02:33;;;;;;;12.10;6.30;;;1.70;99.90;;;;;;5010193;28;20029;-72
2021/04/16 05:04:59;;;;;;;9.82;6.05;;;1.90;99.90;;;;;;5023730;28;20025;-71
2021/04/16 05:07:25;;;;;;;14.93;6.07;;;2.00;99.90;;;;;;5023450;28;20037;-72
2021/04/16 05:09:51;;;;;;;20.00;6.35;;;2.10;99.90;;;;;;5022761;28;20030;-72
2021/04/16 05:12:17;;;;;;;13.80;5.75;;;2.30;99.90;;;;;;5020654;28;20022;-73
2021/04/16 05:14:43;;;;;;;18.45;6.53;;;2.60;99.90;;;;;;5034013;28;20018;-73
2021/04/16 05:17:08;;;;;;;11.57;5.63;;;2.70;99.90;;;;;;5027134;28;20102;-72
2021/04/16 05:19:34;;;;;;;14.40;7.18;;;2.70;99.90;;;;;;5037314;28;20052;-74
2021/04/16 05:22:03;;;;;;;16.27;5.57;;;2.40;99.90;;;;;;5019499;28;20032;-72
2021/04/16 05:24:32;;;;;;;10.15;5.03;;;2.30;99.90;;;;;;5020567;28;20028;-73
2021/04/16 05:27:06;;;;;;;13.23;5.43;;;2.20;99.90;;;;;;5019903;28;20393;-74
2021/04/16 05:29:31;;;;;;;12.30;4.88;;;2.20;99.90;;;;;;5015092;28;20025;-72
2021/04/16 05:31:57;;;;;;;6.03;5.35;;;2.20;99.90;;;;;;5022461;28;20084;-72
2021/04/16 05:34:23;;;;;;;8.07;5.40;;;2.20;99.90;;;;;;5020412;28;20028;-71
2021/04/16 05:36:48;;;;;;;8.02;5.03;;;2.10;99.90;;;;;;5009821;28;20478;-72
2021/04/16 05:39:15;;;;;;;6.28;4.82;;;2.00;99.90;;;;;;5013691;28;20421;-73
2021/04/16 05:41:41;;;;;;;7.30;5.25;;;2.00;99.90;;;;;;5020502;28;20025;-71
2021/04/16 05:44:07;;;;;;;5.30;4.80;;;1.90;99.90;;;;;;5021240;28;20017;-72
2021/04/16 05:46:33;;;;;;;7.43;5.90;;;2.00;99.90;;;;;;5013829;28;20036;-72
2021/04/16 05:48:59;;;;;;;6.45;5.82;;;2.10;99.90;;;;;;5019759;28;20040;-72
2021/04/16 05:51:25;;;;;;;8.80;4.70;;;2.20;99.90;;;;;;5023968;28;20106;-71
2021/04/16 05:53:51;;;;;;;11.23;6.60;;;2.30;99.90;;;;;;5024725;28;20021;-72
2021/04/16 05:56:17;;;;;;;8.35;5.72;;;2.30;99.90;;;;;;5029311;28;20547;-71
2021/04/16 05:58:42;;;;;;;22.38;5.63;;;2.30;99.90;;;;;;5026731;28;20034;-72
2021/04/16 06:01:09;;;;;;;8.82;7.05;;;2.40;99.90;;;;;;5011154;28;20359;-72
2021/04/16 06:03:35;;;;;;;8.70;6.30;;;2.60;99.90;;;;;;5019711;28;20151;-72
2021/04/16 06:06:01;;;;;;;12.60;6.07;;;2.70;99.90;;;;;;5015030;28;20446;-72
2021/04/16 06:08:27;;;;;;;8.82;6.70;;;2.80;99.90;;;;;;5027872;28;20079;-72
2021/04/16 06:10:53;;;;;;;7.15;6.10;;;3.00;99.90;;;;;;5022838;28;20063;-72
2021/04/16 06:13:19;;;;;;;8.05;5.90;;;3.30;75.40;;;;;;5024474;28;20017;-72
2021/04/16 06:15:44;;;;;;;5.78;5.20;;;3.30;77.50;;;;;;5028673;28;20162;-71
2021/04/16 06:18:10;;;;;;;7.18;5.80;;;3.50;87.70;;;;;;5000426;28;20433;-72
2021/04/16 06:20:35;;;;;;;5.85;4.97;;;3.70;58.50;;;;;;5004953;28;20053;-72
2021/04/16 06:23:01;;;;;;;8.27;5.03;;;3.90;24.60;;;;;;5018106;28;20022;-74
2021/04/16 06:25:33;;;;;;;8.07;4.65;;;4.30;12.00;;;;;;5025739;28;20079;-72
2021/04/16 06:28:00;;;;;;;10.07;4.47;;;4.30;1.00;;;;;;5018159;28;20028;-71
2021/04/16 06:30:26;;;;;;;6.07;5.05;;;4.30;1.40;;;;;;5012452;28;20481;-72
2021/04/16 06:33:05;;;;;;;6.15;4.88;;;4.50;1.00;;;;;;5022746;28;20108;-71
2021/04/16 06:35:31;;;;;;;8.30;5.63;;;4.60;1.00;;;;;;5010758;28;20026;-71
2021/04/16 06:37:57;;;;;;;6.13;5.53;;;4.70;1.00;;;;;;5011975;28;20065;-72
2021/04/16 06:40:24;;;;;;;5.25;4.32;;;5.00;1.00;;;;;;5021808;28;20389;-72
2021/04/16 06:42:49;;;;;;;4.95;4.43;;;5.10;1.00;;;;;;5026786;28;20079;-73
2021/04/16 06:45:20;;;;;;;8.43;5.00;;;5.10;1.00;;;;;;5012445;28;20432;-71
2021/04/16 06:47:52;;;;;;;5.13;4.60;;;5.20;1.00;;;;;;5017393;28;20025;-72
2021/04/16 06:50:19;;;;;;;8.82;5.35;;;5.10;1.00;;;;;;5020643;28;20052;-72
2021/04/16 06:53:15;;;;;;;7.18;5.18;;;5.10;1.00;;;;;;5009845;28;20054;-71
2021/04/16 06:56:03;;;;;;;7.60;5.07;;;5.00;99.90;;;;;;4981831;28;20036;-71
2021/04/16 06:58:43;;;;;;;5.53;4.80;;;5.10;1.00;;;;;;5009592;28;20236;-71
2021/04/16 07:01:31;;;;;;;10.45;5.43;;;5.20;1.00;;;;;;5002313;28;20018;-76
2021/04/16 07:04:10;;;;;;;7.05;4.70;;;5.10;1.00;;;;;;5010710;28;20176;-75
2021/04/16 07:06:35;;;;;;;6.15;5.55;;;5.20;1.00;;;;;;5010634;28;20100;-76
2021/04/16 07:09:14;;;;;;;7.80;5.18;;;4.90;1.00;;;;;;5015090;28;20053;-75
2021/04/16 07:11:44;;;;;;;6.95;5.80;;;4.90;1.00;;;;;;5016339;28;20474;-76
2021/04/16 07:14:34;;;;;;;5.47;4.93;;;4.60;45.50;;;;;;5014348;28;20069;-76
2021/04/16 07:17:00;;;;;;;5.53;4.97;;;5.00;3.10;;;;;;5007413;28;20072;-75
2021/04/16 07:19:28;;;;;;;4.70;4.30;;;5.00;19.00;;;;;;5011733;28;20112;-76
2021/04/16 07:22:04;;;;;;;5.32;4.82;;;5.20;1.00;;;;;;5032221;28;20044;-75
2021/04/16 07:24:31;;;;;;;5.40;4.90;;;5.30;1.00;;;;;;5025280;28;20046;-76
2021/04/16 07:26:59;;;;;;;5.38;4.90;;;5.40;1.00;;;;;;5011450;28;20022;-77
2021/04/16 07:29:45;;;;;;;5.53;5.03;;;5.50;1.00;;;;;;5017705;28;20026;-76
2021/04/16 07:32:24;;;;;;;5.50;4.80;;;5.40;1.00;;;;;;5012458;28;20044;-76
2021/04/16 07:34:50;;;;;;;5.30;4.80;;;5.50;1.00;;;;;;5013983;28;20053;-76
2021/04/16 07:37:16;;;;;;;6.47;5.75;;;5.50;1.00;;;;;;5016515;28;20014;-75
2021/04/16 07:40:06;;;;;;;6.10;5.50;;;5.50;1.00;;;;;;5027302;28;20521;-76
2021/04/16 07:42:44;;;;;;;6.05;5.38;;;5.80;99.90;;;;;;5031606;28;20491;-76
2021/04/16 07:45:19;;;;;;;5.72;5.22;;;5.30;1.00;;;;;;5036298;28;20018;-76
2021/04/16 07:47:46;;;;;;;5.63;5.13;;;5.50;1.00;;;;;;5020452;28;20026;-76
2021/04/16 07:50:41;;;;;;;5.53;5.03;;;5.70;1.00;;;;;;5029101;28;20366;-76
2021/04/16 07:53:30;;;;;;;5.80;5.05;;;5.30;1.00;;;;;;5036066;28;20041;-78
2021/04/16 07:56:07;;;;;;;7.55;5.82;;;4.80;16.00;;;;;;5031224;28;20048;-75
2021/04/16 07:58:33;;;;;;;6.78;6.05;;;4.80;80.40;;;;;;5002946;28;20026;-76
2021/04/16 08:01:10;;;;;;;7.88;5.95;;;5.30;1.00;;;;;;5010906;28;20072;-74
2021/04/16 08:03:44;;;;;;;5.80;5.20;;;5.40;1.00;;;;;;5024643;28;20021;-77
2021/04/16 08:06:43;;;;;;;5.53;5.03;;;5.60;1.00;;;;;;5038761;28;20025;-75
2021/04/16 08:09:26;;;;;;;6.28;5.68;;;5.20;1.00;;;;;;5036938;28;20037;-75
2021/04/16 08:12:08;;;;;;;6.35;5.45;;;4.60;99.90;;;;;;5036347;28;20025;-76
2021/04/16 08:14:39;;;;;;;5.43;4.93;;;4.60;99.90;;;;;;5036339;28;20072;-76
2021/04/16 08:17:27;;;;;;;6.18;5.70;;;4.70;99.90;;;;;;5024633;28;20030;-76
2021/04/16 08:19:53;;;;;;;6.15;5.65;;;5.30;27.00;;;;;;5020237;28;20026;-74
2021/04/16 08:22:32;;;;;;;5.32;4.85;;;5.40;20.10;;;;;;5026466;28;20025;-74
2021/04/16 08:25:08;;;;;;;5.35;4.80;;;5.10;59.80;;;;;;5039901;28;20021;-75
2021/04/16 08:27:51;;;;;;;5.57;5.00;;;4.90;98.10;;;;;;5032839;28;20061;-74
2021/04/16 08:30:25;;;;;;;5.30;4.88;;;5.20;54.90;;;;;;5022306;28;20029;-75
2021/04/16 08:33:20;;;;;;;5.28;4.72;;;5.50;1.00;;;;;;5083052;22;20096;-76
2021/04/16 08:36:06;;;;;;;5.10;4.60;;;5.30;1.00;;;;;;5026931;28;20519;-75
2021/04/16 08:38:51;;;;;;;6.30;5.05;;;5.90;1.00;;;;;;5035291;28;20430;-75
2021/04/16 08:41:18;;;;;;;6.10;5.50;;;6.20;1.00;;;;;;5018173;28;20113;-78
2021/04/16 08:43:50;;;;;;;5.45;4.93;;;6.10;1.00;;;;;;5019059;28;20022;-74
2021/04/16 08:46:30;;;;;;;5.20;4.80;;;5.90;1.00;;;;;;5019525;28;20505;-75
2021/04/16 08:48:58;;;;;;;4.60;4.20;;;6.40;99.90;;;;;;5003940;28;20030;-75
2021/04/16 08:51:28;;;;;;;5.65;4.40;;;6.60;99.90;;;;;;5006804;28;20468;-75
2021/04/16 08:54:17;;;;;;;5.03;4.60;;;6.50;99.90;;;;;;5006853;28;20157;-75
2021/04/16 08:56:55;;;;;;;5.50;5.00;;;6.50;99.90;;;;;;5010632;28;20037;-76
2021/04/16 08:59:22;;;;;;;6.25;4.32;;;6.10;99.90;;;;;;5020647;28;20057;-74
2021/04/16 09:02:07;;;;;;;4.47;4.07;;;6.40;99.90;;;;;;5020977;28;20029;-75
2021/04/16 09:04:33;;;;;;;4.20;3.80;;;6.70;75.50;;;;;;5018685;28;20034;-76
2021/04/16 09:07:00;;;;;;;4.93;4.47;;;7.40;99.90;;;;;;5018593;28;20477;-76
2021/04/16 09:09:48;;;;;;;4.60;4.05;;;7.50;19.90;;;;;;5017270;28;20334;-75
2021/04/16 09:12:38;;;;;;;4.22;3.90;;;7.50;1.00;;;;;;5014433;28;20022;-75
2021/04/16 09:15:24;;;;;;;4.70;4.30;;;7.80;91.70;;;;;;5010430;28;20673;-75
2021/04/16 09:17:52;;;;;;;4.53;4.10;;;7.80;99.90;;;;;;5011623;28;20120;-75
2021/04/16 09:20:23;;;;;;;4.78;4.35;;;7.40;99.90;;;;;;5012485;28;20032;-75
2021/04/16 09:22:52;;;;;;;4.30;3.90;;;7.20;99.90;;;;;;5017166;28;20105;-75
2021/04/16 09:25:29;;;;;;;3.88;3.58;;;7.80;99.90;;;;;;5015926;28;20037;-75
2021/04/16 09:28:16;;;;;;;5.43;3.80;;;8.10;1.00;;;;;;5009695;28;20101;-75
2021/04/16 09:30:41;;;;;;;9.73;4.30;;;8.00;46.30;;;;;;5010990;28;20049;-75
2021/04/16 09:33:40;;;;;;;5.13;4.72;;;8.30;99.90;;;;;;5013946;28;20485;-74
2021/04/16 09:36:27;;;;;;;4.60;4.20;;;8.30;99.90;;;;;;5008570;28;20112;-76
2021/04/16 09:38:54;;;;;;;4.55;4.15;;;7.90;99.90;;;;;;5012202;28;20080;-75
2021/04/16 09:41:20;;;;;;;5.18;4.57;;;8.20;99.90;;;;;;5015692;28;20017;-76
2021/04/16 09:43:49;;;;;;;5.32;4.75;;;8.10;99.90;;;;;;5006151;28;20010;-75
2021/04/16 09:46:38;;;;;;;4.80;4.40;;;7.40;1.00;;;;;;5012698;28;20026;-76
2021/04/16 09:49:10;;;;;;;4.75;4.35;;;7.10;99.90;;;;;;4998571;28;20105;-75
2021/04/16 09:51:40;;;;;;;5.45;4.72;;;7.30;99.90;;;;;;5010507;28;20049;-75
2021/04/16 09:54:09;;;;;;;4.80;4.40;;;7.50;99.90;;;;;;5019157;28;20393;-75
2021/04/16 09:56:57;;;;;;;5.68;5.18;;;7.80;99.90;;;;;;5002393;28;20128;-75
2021/04/16 09:59:55;;;;;;;5.22;4.72;;;8.20;99.90;;;;;;5007022;28;20036;-75
2021/04/16 10:02:41;;;;;;;4.57;4.03;;;8.60;99.90;;;;;;4993097;28;20088;-74
2021/04/16 10:05:19;;;;;;;4.72;4.32;;;9.10;99.90;;;;;;5013563;28;20037;-75
2021/04/16 10:07:55;;;;;;;7.90;5.20;;;9.70;99.90;;;;;;5015158;28;20398;-75
2021/04/16 10:10:49;;;;;;;4.28;3.88;;;9.40;99.90;;;;;;5028460;28;20037;-74
2021/04/16 10:13:29;;;;;;;4.22;3.83;;;9.50;1.00;;;;;;5009171;28;20490;-75
2021/04/16 10:15:58;;;;;;;4.20;3.90;;;9.20;38.10;;;;;;5019035;28;20053;-76
2021/04/16 10:18:37;;;;;;;3.78;3.47;;;8.80;99.90;;;;;;5017352;28;20041;-74
2021/04/16 10:21:18;;;;;;;4.57;4.18;;;8.60;88.50;;;;;;5015035;28;20053;-76
2021/04/16 12:39:04;;;;;;;3.95;3.63;;;8.30;1.00;;;;;;5017740;28;20329;-74
2021/04/16 12:41:07;;;;;;;4.38;4.00;;;8.50;99.90;;;;;;5010420;28;20049;-74
2021/04/16 12:43:36;;;;;;;7.07;3.80;;;8.40;1.00;;;;;;5009543;28;20025;-77
2021/04/16 12:46:03;;;;;;;4.38;3.50;;;8.60;1.00;;;;;;5005926;28;20026;-74
2021/04/16 12:48:29;;;;;;;4.25;3.92;;;8.50;99.90;;;;;;5019065;28;20036;-74
2021/04/16 12:50:55;;;;;;;4.22;3.88;;;8.30;1.00;;;;;;5012224;28;20109;-74
2021/04/16 12:53:21;;;;;;;4.25;3.85;;;8.40;99.90;;;;;;5018302;28;20108;-73
2021/04/16 12:55:48;;;;;;;4.43;4.03;;;8.80;99.90;;;;;;5005216;28;20034;-73
2021/04/16 12:58:41;;;;;;;3.80;3.50;;;8.40;99.90;;;;;;4995027;28;20034;-73
2021/04/16 13:01:20;;;;;;;4.40;3.35;;;8.30;1.00;;;;;;4993375;28;20088;-72
2021/04/16 13:03:50;;;;;;;7.05;3.85;;;9.10;99.90;;;;;;4995171;28;20493;-74
2021/04/16 13:06:30;;;;;;;4.40;4.10;;;9.00;99.90;;;;;;5014723;28;20441;-73
2021/04/16 13:08:56;;;;;;;4.45;4.05;;;9.30;1.00;;;;;;4996754;28;20466;-72
2021/04/16 13:11:22;;;;;;;3.70;3.40;;;9.00;28.10;;;;;;5001099;28;20065;-74
2021/04/16 13:13:48;;;;;;;6.18;4.28;;;9.30;11.20;;;;;;5013242;28;20036;-73
2021/04/16 13:16:14;;;;;;;4.70;3.47;;;9.60;1.00;;;;;;5017183;28;20057;-73
2021/04/16 13:18:43;;;;;;;3.95;3.22;;;9.40;1.00;;;;;;5011088;28;20458;-73
2021/04/16 13:21:23;;;;;;;3.80;3.40;;;9.60;99.90;;;;;;5004502;28;20536;-73
2021/04/16 13:23:49;;;;;;;3.17;2.88;;;9.30;99.90;;;;;;5011563;28;20033;-72
2021/04/16 13:26:15;;;;;;;5.85;3.83;;;9.70;99.90;;;;;;5016493;28;20129;-73
2021/04/16 13:28:41;;;;;;;3.95;2.95;;;9.90;99.90;;;;;;5017901;28;20058;-73
2021/04/16 13:31:07;;;;;;;3.03;2.83;;;9.90;99.90;;;;;;5029916;28;20030;-73
2021/04/16 13:33:39;;;;;;;3.40;2.88;;;9.80;99.90;;;;;;5026167;28;20026;-74
2021/04/16 13:36:11;;;;;;;3.53;3.22;;;9.70;99.90;;;;;;5034243;28;20048;-76
2021/04/16 13:38:37;;;;;;;3.03;2.83;;;10.10;99.90;;;;;;5023520;28;20050;-78
2021/04/16 13:41:04;;;;;;;4.18;2.97;;;10.00;99.90;;;;;;5032059;28;20018;-75
2021/04/16 13:43:30;;;;;;;5.30;3.53;;;9.70;99.90;;;;;;5029218;28;20018;-76
2021/04/16 13:45:57;;;;;;;3.28;2.53;;;9.50;99.90;;;;;;5034462;28;20018;-75
2021/04/16 13:48:22;;;;;;;4.25;2.70;;;9.80;99.90;;;;;;5024742;28;20026;-76
2021/04/16 13:50:49;;;;;;;2.55;2.35;;;9.60;57.20;;;;;;5035555;28;20040;-76
2021/04/16 13:53:15;;;;;;;5.28;2.75;;;9.60;76.00;;;;;;5038086;28;20026;-76
2021/04/16 13:55:44;;;;;;;2.95;2.75;;;9.60;87.60;;;;;;5035518;28;20334;-76
2021/04/16 13:58:10;;;;;;;4.07;3.78;;;10.00;42.20;;;;;;5034184;28;20026;-76
2021/04/16 14:00:39;;;;;;;3.17;2.78;;;10.10;10.80;;;;;;5032944;28;20025;-77
2021/04/16 14:03:27;;;;;;;2.65;2.45;;;10.00;1.00;;;;;;5024462;28;20044;-76
2021/04/16 14:05:55;;;;;;;2.88;2.15;;;10.00;1.00;;;;;;5019183;28;20397;-77
2021/04/16 14:08:33;;;;;;;4.97;2.38;;;9.80;1.00;;;;;;5006577;28;20033;-77
2021/04/16 14:11:00;;;;;;;2.53;2.30;;;9.00;10.00;;;;;;5022019;28;20076;-77
2021/04/16 14:13:27;;;;;;;3.63;2.00;;;9.30;6.60;;;;;;5015127;28;20030;-77
2021/04/16 14:15:54;;;;;;;3.92;1.45;;;9.40;1.00;;;;;;5023098;28;20022;-77
2021/04/16 14:18:25;;;;;;;2.75;2.22;;;9.00;1.00;;;;;;5022914;28;20022;-76
2021/04/16 14:20:51;;;;;;;2.35;2.15;;;9.20;1.00;;;;;;5013826;28;20030;-77
2021/04/16 14:23:17;;;;;;;3.13;1.83;;;9.10;1.00;;;;;;5019356;28;20023;-76
2021/04/16 14:25:44;;;;;;;2.30;2.10;;;9.00;1.00;;;;;;5022580;28;20110;-76
2021/04/16 14:28:14;;;;;;;2.63;2.42;;;8.80;1.00;;;;;;5018227;28;20013;-76
2021/04/16 14:30:42;;;;;;;2.03;1.83;;;8.90;1.00;;;;;;5021535;28;20050;-78
2021/04/16 14:33:17;;;;;;;2.10;2.00;;;8.70;1.00;;;;;;5058323;23;20049;-76
2021/04/16 14:35:42;;;;;;;2.97;2.78;;;8.40;1.00;;;;;;5045119;28;20013;-75
2021/04/16 14:38:08;;;;;;;4.78;2.08;;;8.50;11.10;;;;;;5052526;28;20072;-74
2021/04/16 14:40:35;;;;;;;3.22;2.20;;;8.60;15.00;;;;;;5056558;28;20036;-75
2021/04/16 14:43:06;;;;;;;3.95;2.17;;;9.00;1.00;;;;;;5045672;28;20262;-75
2021/04/16 14:45:36;;;;;;;2.10;2.00;;;9.10;1.00;;;;;;5036888;28;20033;-75
2021/04/16 14:48:02;;;;;;;2.67;2.47;;;9.20;1.00;;;;;;5028804;28;20034;-74
2021/04/16 14:50:29;;;;;;;3.03;2.35;;;9.10;1.00;;;;;;5032791;28;20014;-76
2021/04/16 14:53:00;;;;;;;2.20;1.95;;;9.10;4.80;;;;;;5036138;28;20014;-74
2021/04/16 14:55:28;;;;;;;;;;;8.80;1.20;;;;;;5035065;28;20042;-75
2021/04/16 14:57:56;;;;;;;2.22;2.00;;;9.00;11.10;;;;;;5036917;28;19981;-75
2021/04/16 15:00:24;;;;;;;2.00;1.90;;;9.00;13.90;;;;;;5036806;28;20030;-75
2021/04/16 15:02:52;;;;;;;2.17;1.92;;;8.70;31.10;;;;;;5029711;28;20037;-75
2021/04/16 15:05:19;;;;;;;3.40;1.95;;;8.40;61.60;;;;;;5033731;28;20033;-74
2021/04/16 15:07:58;;;;;;;2.38;2.17;;;8.10;95.90;;;;;;5021721;28;20026;-73
2021/04/16 15:10:39;;;;;;;3.15;1.95;;;8.20;99.90;;;;;;5023349;28;20552;-74
2021/04/16 15:13:07;;;;;;;4.65;2.17;;;8.50;99.90;;;;;;5016588;28;20009;-74
2021/04/16 15:15:38;;;;;;;3.10;2.35;;;8.60;99.90;;;;;;5020734;28;20026;-74
2021/04/16 15:18:07;;;;;;;8.23;2.17;;;8.60;84.00;;;;;;5027021;28;20062;-73
2021/04/16 15:20:33;;;;;;;6.97;2.35;;;8.10;99.90;;;;;;5020435;28;20029;-73
2021/04/16 15:23:03;;;;;;;2.25;1.90;;;8.00;99.90;;;;;;5020941;28;20034;-75
2021/04/16 15:25:29;;;;;;;2.42;2.22;;;8.30;99.90;;;;;;5019948;28;20378;-75
2021/04/16 15:28:08;;;;;;;17.30;5.32;;;8.10;99.90;;;;;;5019027;28;20108;-74
2021/04/16 15:30:38;;;;;;;6.10;2.50;;;8.10;99.90;;;;;;5008921;28;20095;-74